createdAt,value
2022-08-08T00:04:49.291Z,73.69
2022-08-08T00:10:28.201Z,75.25
2022-08-08T00:15:56.751Z,73.01
2022-08-08T00:21:05.397Z,72.63
2022-08-08T00:26:15.232Z,73.57
2022-08-08T00:32:20.845Z,75.14
2022-08-08T00:37:08.133Z,71.34
2022-08-08T00:42:42.698Z,71.06
2022-08-08T00:48:29.549Z,69.38
2022-08-08T00:53:43.489Z,65.81
2022-08-08T00:59:44.321Z,65.87
2022-08-08T01:05:29.273Z,64.31
2022-08-08T01:11:06.438Z,64.19
2022-08-08T01:16:55.350Z,61.01
2022-08-08T01:22:35.425Z,62.16
2022-08-08T01:28:00.303Z,63.19
2022-08-08T01:33:24.128Z,60.63
2022-08-08T01:38:49.531Z,59.57
2022-08-08T01:44:10.357Z,58.58
2022-08-08T01:49:37.592Z,57.78
2022-08-08T01:55:26.746Z,59.15
2022-08-08T02:00:48.824Z,59.94
2022-08-08T02:06:32.711Z,59.22
2022-08-08T02:11:59.010Z,58.64
2022-08-08T02:17:42.505Z,59.85
2022-08-08T02:23:04.243Z,61.40
2022-08-08T02:28:20.205Z,60.58
2022-08-08T02:33:41.486Z,60.94
2022-08-08T02:39:40.469Z,60.79
2022-08-08T02:45:25.986Z,62.37
2022-08-08T02:51:03.292Z,62.51
2022-08-08T02:56:47.832Z,64.16
2022-08-08T03:02:19.867Z,64.00
2022-08-08T03:07:41.781Z,63.62
2022-08-08T03:13:33.399Z,62.56
2022-08-08T03:18:49.296Z,61.78
2022-08-08T03:24:02.009Z,62.30
2022-08-08T03:29:18.722Z,64.65
2022-08-08T03:34:31.660Z,65.49
2022-08-08T03:39:51.740Z,66.74
2022-08-08T03:45:02.267Z,68.18
2022-08-08T03:50:27.353Z,69.33
2022-08-08T03:55:57.137Z,69.20
2022-08-08T04:01:23.069Z,70.88
2022-08-08T04:06:22.335Z,71.48
2022-08-08T04:11:27.074Z,71.36
2022-08-08T04:16:40.032Z,70.26
2022-08-08T04:21:47.204Z,69.94
2022-08-08T04:26:57.611Z,68.82
2022-08-08T04:32:03.129Z,70.45
2022-08-08T04:37:12.039Z,68.27
2022-08-08T04:42:17.476Z,67.63
2022-08-08T04:47:20.695Z,67.12
2022-08-08T04:52:33.926Z,67.61
2022-08-08T04:57:43.376Z,66.96
2022-08-08T05:02:47.433Z,66.81
2022-08-08T05:07:57.864Z,66.26
2022-08-08T05:13:02.771Z,65.54
2022-08-08T05:18:11.029Z,65.24
2022-08-08T05:23:16.891Z,64.85
2022-08-08T05:28:56.567Z,63.71
2022-08-08T05:33:49.218Z,62.65
2022-08-08T05:38:54.474Z,62.63
2022-08-08T05:44:10.989Z,62.59
2022-08-08T05:55:34.938Z,61.60
2022-08-08T06:00:58.567Z,59.66
2022-08-08T06:06:06.787Z,58.27
2022-08-08T06:11:16.693Z,53.31
2022-08-08T06:16:27.664Z,53.65
2022-08-08T06:21:51.561Z,51.92
2022-08-08T06:27:06.209Z,48.85
2022-08-08T06:32:18.473Z,41.90
2022-08-08T06:37:36.819Z,40.56
2022-08-08T06:43:03.638Z,39.91
2022-08-08T06:48:12.372Z,33.79
2022-08-08T06:53:20.534Z,34.97
2022-08-08T06:58:30.900Z,33.83
2022-08-08T07:04:40.534Z,32.14
2022-08-08T07:09:45.487Z,33.11
2022-08-08T07:15:22.983Z,33.04
2022-08-08T07:20:46.017Z,34.22
2022-08-08T07:26:00.250Z,32.97
2022-08-08T07:31:05.929Z,31.26
2022-08-08T07:36:12.539Z,32.70
2022-08-08T07:41:24.738Z,34.24
2022-08-08T07:46:32.849Z,34.14
2022-08-08T07:51:53.123Z,33.19
2022-08-08T07:57:19.931Z,32.57
2022-08-08T08:02:39.158Z,35.33
2022-08-08T08:07:57.110Z,34.62
2022-08-08T08:13:25.866Z,33.21
2022-08-08T08:18:55.712Z,29.90
2022-08-08T08:24:05.070Z,30.29
2022-08-08T08:29:09.522Z,36.30
2022-08-08T08:34:21.251Z,34.25
2022-08-08T08:40:00.390Z,36.04
2022-08-08T08:44:50.921Z,38.73
2022-08-08T08:49:54.127Z,40.05
2022-08-08T08:55:00.317Z,42.78
2022-08-08T09:00:14.751Z,46.99
2022-08-08T09:05:49.252Z,48.57
2022-08-08T09:10:48.000Z,46.63
2022-08-08T09:15:52.771Z,50.21
2022-08-08T09:21:59.697Z,57.16
2022-08-08T09:26:47.341Z,57.28
2022-08-08T09:32:04.479Z,63.86
2022-08-08T09:37:39.414Z,69.54
2022-08-08T09:42:51.682Z,71.63
2022-08-08T09:48:04.400Z,74.13
2022-08-08T09:53:32.014Z,74.26
2022-08-08T09:58:57.836Z,75.60
2022-08-08T10:04:04.836Z,73.03
2022-08-08T10:09:09.537Z,59.13
2022-08-08T10:14:28.623Z,49.33
2022-08-08T10:19:57.398Z,49.74
2022-08-08T10:25:15.880Z,48.16
2022-08-08T10:31:00.418Z,42.71
2022-08-08T10:36:08.342Z,48.45
2022-08-08T10:41:25.938Z,53.05
2022-08-08T10:46:39.672Z,51.78
2022-08-08T10:51:51.000Z,52.79
2022-08-08T10:57:08.889Z,52.08
2022-08-08T11:02:12.260Z,51.59
2022-08-08T11:08:30.983Z,50.99
2022-08-08T11:13:12.137Z,51.48
2022-08-08T11:18:16.484Z,55.67
2022-08-08T11:23:22.142Z,63.96
2022-08-08T11:28:29.856Z,70.49
2022-08-08T11:33:53.066Z,72.64
2022-08-08T11:39:02.894Z,75.03
2022-08-08T11:44:06.253Z,74.50
2022-08-08T11:49:14.284Z,72.67
2022-08-08T11:54:32.476Z,73.06
2022-08-08T11:59:57.736Z,75.96
2022-08-08T12:05:13.491Z,74.85
2022-08-08T12:10:18.522Z,67.53
2022-08-08T12:15:42.219Z,64.93
2022-08-08T12:20:53.374Z,66.55
2022-08-08T12:26:08.355Z,69.22
2022-08-08T12:31:11.477Z,68.38
2022-08-08T12:36:18.199Z,69.31
2022-08-08T12:41:35.414Z,69.79
2022-08-08T12:47:00.116Z,71.10
2022-08-08T12:52:14.222Z,72.46
2022-08-08T12:57:31.769Z,64.56
2022-08-08T13:02:51.512Z,66.76
2022-08-08T13:08:03.848Z,71.18
2022-08-08T13:13:08.646Z,77.47
2022-08-08T13:18:13.801Z,78.54
2022-08-08T13:23:41.271Z,83.02
2022-08-08T13:28:45.877Z,86.07
2022-08-08T13:33:54.347Z,83.75
2022-08-08T13:38:59.240Z,76.30
2022-08-08T13:44:04.936Z,77.72
2022-08-08T13:50:37.942Z,76.16
2022-08-08T13:54:49.662Z,74.74
2022-08-08T14:00:15.760Z,71.19
2022-08-08T14:05:28.403Z,70.06
2022-08-08T14:10:37.409Z,63.97
2022-08-08T14:15:46.359Z,60.74
2022-08-08T14:21:02.845Z,62.31
2022-08-08T14:26:10.629Z,58.45
2022-08-08T14:31:20.359Z,56.29
2022-08-08T14:36:36.054Z,53.73
2022-08-08T14:41:54.578Z,48.46
2022-08-08T14:47:01.500Z,41.11
2022-08-08T14:52:09.533Z,42.80
2022-08-08T14:57:16.340Z,43.90
2022-08-08T15:02:28.298Z,46.57
2022-08-08T15:07:39.150Z,45.60
2022-08-08T15:12:45.154Z,45.87
2022-08-08T15:17:50.141Z,47.71
2022-08-08T15:22:54.601Z,47.63
2022-08-08T15:28:32.513Z,51.90
2022-08-08T15:33:35.771Z,51.58
2022-08-08T15:38:50.173Z,51.26
2022-08-08T15:44:01.052Z,49.33
2022-08-08T15:49:05.480Z,51.81
2022-08-08T15:54:18.615Z,50.93
2022-08-08T16:00:18.047Z,49.91
2022-08-08T16:04:58.771Z,49.66
2022-08-08T16:13:10.646Z,50.39
2022-08-08T16:15:26.921Z,49.85
2022-08-08T16:20:36.727Z,47.58
2022-08-08T16:25:46.634Z,49.74
2022-08-08T16:30:58.448Z,50.60
2022-08-08T16:36:08.690Z,52.09
2022-08-08T16:41:20.173Z,54.12
2022-08-08T16:46:38.474Z,55.73
2022-08-08T16:55:19.333Z,55.70
2022-08-08T16:58:11.808Z,58.10
2022-08-08T17:02:39.577Z,57.39
2022-08-08T17:07:45.826Z,57.14
2022-08-08T17:12:53.456Z,59.05
2022-08-08T17:18:01.079Z,59.37
2022-08-08T17:23:16.659Z,58.07
2022-08-08T17:28:35.357Z,60.36
2022-08-08T17:34:53.765Z,60.22
2022-08-08T17:39:45.733Z,60.27
2022-08-08T17:44:28.738Z,66.46
2022-08-08T17:49:42.542Z,68.03
2022-08-08T17:54:47.203Z,69.12
2022-08-08T18:00:02.185Z,71.73
2022-08-08T18:05:08.795Z,76.59
2022-08-08T18:10:17.893Z,81.40
2022-08-08T18:15:21.343Z,78.53
2022-08-08T18:20:36.680Z,77.76
2022-08-08T18:25:51.459Z,77.51
2022-08-08T18:30:54.673Z,77.79
2022-08-08T18:36:03.925Z,76.17
2022-08-08T18:41:07.027Z,79.88
2022-08-08T18:46:55.823Z,79.88
2022-08-08T18:51:52.452Z,79.31
2022-08-08T18:56:58.379Z,80.08
2022-08-08T19:02:25.657Z,80.48
2022-08-08T19:07:29.613Z,80.13
2022-08-08T19:12:36.919Z,82.56
2022-08-08T19:18:31.103Z,82.66
2022-08-08T19:23:11.626Z,83.79
2022-08-08T19:28:18.058Z,84.45
2022-08-08T19:33:24.674Z,85.78
2022-08-08T19:38:27.767Z,86.78
2022-08-08T19:43:30.881Z,88.69
2022-08-08T19:48:36.939Z,89.40
2022-08-08T19:53:53.489Z,90.54
2022-08-08T19:58:57.565Z,91.28
2022-08-08T20:04:03.558Z,92.01
2022-08-08T20:09:08.764Z,93.24
2022-08-08T20:14:33.782Z,94.15
2022-08-08T20:19:42.264Z,94.16
2022-08-08T20:24:46.482Z,94.73
2022-08-08T20:30:00.233Z,94.84
2022-08-08T20:35:05.155Z,94.59
2022-08-08T20:40:11.541Z,94.96
2022-08-08T20:45:54.765Z,95.44
2022-08-08T20:50:42.881Z,95.61
2022-08-08T20:55:51.290Z,95.89
2022-08-08T21:00:54.459Z,95.60
2022-08-08T21:05:59.478Z,91.67
2022-08-08T21:11:02.901Z,91.73
2022-08-08T21:16:18.085Z,92.31
2022-08-08T21:21:39.550Z,92.42
2022-08-08T21:26:44.857Z,92.20
2022-08-08T21:31:58.899Z,89.65
2022-08-08T21:37:11.311Z,86.41
2022-08-08T21:42:19.487Z,86.21
2022-08-08T21:48:03.646Z,87.11
2022-08-08T21:54:22.980Z,88.39
2022-08-08T21:58:15.706Z,89.22
2022-08-08T22:03:20.350Z,89.82
2022-08-08T22:08:24.526Z,89.44
2022-08-08T22:13:47.803Z,89.42
2022-08-08T22:18:52.570Z,89.99
2022-08-08T22:23:56.335Z,90.20
2022-08-08T22:29:13.332Z,90.65
2022-08-08T22:34:27.034Z,91.40
2022-08-08T22:39:39.349Z,91.32
2022-08-08T22:44:50.206Z,91.93
2022-08-08T22:49:59.996Z,90.73
2022-08-08T22:55:06.391Z,91.22
2022-08-08T23:00:13.448Z,90.48
2022-08-08T23:05:16.809Z,89.49
2022-08-08T23:10:25.328Z,88.69
2022-08-08T23:16:39.187Z,88.07
2022-08-08T23:20:54.760Z,85.89
2022-08-08T23:25:59.456Z,84.47
2022-08-08T23:31:03.511Z,84.82
2022-08-08T23:36:08.959Z,84.75
2022-08-08T23:41:22.812Z,84.52
2022-08-08T23:49:05.809Z,85.41
2022-08-08T23:52:06.904Z,86.23
2022-08-08T23:57:25.681Z,84.88
